createdAt,value
2022-10-17T00:01:16.156Z,15.00
2022-10-17T00:05:00.563Z,15.00
2022-10-17T00:08:43.795Z,15.00
2022-10-17T00:12:25.657Z,15.00
2022-10-17T00:16:07.838Z,15.00
2022-10-17T00:19:50.019Z,15.00
2022-10-17T00:23:33.182Z,15.00
2022-10-17T00:27:17.219Z,15.00
2022-10-17T00:31:00.689Z,15.00
2022-10-17T00:34:42.713Z,15.00
2022-10-17T00:38:24.498Z,15.00
2022-10-17T00:42:06.960Z,14.90
2022-10-17T00:45:48.783Z,15.00
2022-10-17T00:49:34.742Z,14.90
2022-10-17T00:53:17.436Z,14.90
2022-10-17T00:57:00.117Z,15.00
2022-10-17T01:00:43.636Z,15.00
2022-10-17T01:04:25.506Z,15.00
2022-10-17T01:08:08.169Z,15.00
2022-10-17T01:11:59.891Z,15.00
2022-10-17T01:15:47.779Z,15.00
2022-10-17T01:19:35.202Z,15.00
2022-10-17T01:27:37.496Z,15.10
2022-10-17T01:31:42.047Z,15.10
2022-10-17T01:35:26.679Z,15.10
2022-10-17T01:39:24.293Z,15.10
2022-10-17T01:43:26.088Z,15.10
2022-10-17T01:47:17.797Z,15.10
2022-10-17T01:51:06.446Z,15.10
2022-10-17T01:54:56.113Z,15.10
2022-10-17T01:58:49.486Z,15.10
2022-10-17T02:02:32.152Z,15.10
2022-10-17T02:06:14.055Z,15.10
2022-10-17T02:09:55.853Z,15.10
2022-10-17T02:13:52.403Z,15.10
2022-10-17T02:17:43.079Z,15.10
2022-10-17T02:21:44.979Z,15.10
2022-10-17T02:25:41.644Z,15.10
2022-10-17T02:29:31.380Z,15.10
2022-10-17T02:33:20.749Z,15.10
2022-10-17T02:37:05.665Z,15.00
2022-10-17T02:40:50.223Z,15.00
2022-10-17T02:44:33.755Z,15.00
2022-10-17T02:48:44.206Z,15.00
2022-10-17T02:52:41.970Z,14.90
2022-10-17T02:56:26.295Z,15.00
2022-10-17T03:00:12.061Z,15.00
2022-10-17T03:04:05.872Z,14.90
2022-10-17T03:07:48.064Z,15.00
2022-10-17T03:11:29.931Z,15.00
2022-10-17T03:15:12.157Z,14.90
2022-10-17T03:18:59.971Z,14.90
2022-10-17T03:22:41.737Z,14.90
2022-10-17T03:26:23.519Z,14.90
2022-10-17T03:30:05.832Z,14.80
2022-10-17T03:33:47.654Z,14.70
2022-10-17T03:37:30.047Z,14.60
2022-10-17T03:41:12.025Z,14.50
2022-10-17T03:44:53.773Z,14.50
2022-10-17T03:48:35.654Z,14.40
2022-10-17T03:52:23.640Z,14.40
2022-10-17T03:56:24.538Z,14.40
2022-10-17T04:03:51.262Z,14.40
2022-10-17T04:07:33.092Z,14.40
2022-10-17T04:11:17.752Z,14.40
2022-10-17T04:14:59.540Z,14.40
2022-10-17T04:18:42.514Z,14.40
2022-10-17T04:22:24.279Z,14.30
2022-10-17T04:29:49.451Z,14.30
2022-10-17T04:33:32.470Z,14.30
2022-10-17T04:37:14.266Z,14.30
2022-10-17T04:41:03.193Z,14.30
2022-10-17T04:44:44.989Z,14.20
2022-10-17T04:48:27.676Z,14.20
2022-10-17T04:52:09.453Z,14.20
2022-10-17T04:55:51.708Z,14.10
2022-10-17T04:59:33.455Z,14.00
2022-10-17T05:03:15.625Z,14.00
2022-10-17T05:06:57.484Z,14.00
2022-10-17T05:10:46.224Z,13.90
2022-10-17T05:14:28.250Z,13.80
2022-10-17T05:18:10.053Z,13.80
2022-10-17T05:21:51.807Z,13.80
2022-10-17T05:25:33.558Z,13.80
2022-10-17T05:29:15.366Z,13.80
2022-10-17T05:32:57.303Z,13.70
2022-10-17T05:36:39.101Z,13.70
2022-10-17T05:40:20.965Z,13.70
2022-10-17T05:44:05.359Z,13.60
2022-10-17T05:47:47.543Z,13.60
2022-10-17T05:51:29.380Z,13.60
2022-10-17T05:55:11.212Z,13.60
2022-10-17T05:58:56.235Z,13.60
2022-10-17T06:02:40.551Z,13.60
2022-10-17T06:06:22.763Z,13.60
2022-10-17T06:10:04.844Z,13.50
2022-10-17T06:13:46.595Z,13.50
2022-10-17T06:17:29.211Z,13.50
2022-10-17T06:21:14.249Z,13.50
2022-10-17T06:24:56.017Z,13.50
2022-10-17T06:28:37.924Z,13.50
2022-10-17T06:32:19.712Z,13.50
2022-10-17T06:36:02.259Z,13.50
2022-10-17T06:39:44.154Z,13.50
2022-10-17T06:43:28.190Z,13.50
2022-10-17T06:47:10.269Z,13.50
2022-10-17T06:50:51.971Z,13.50
2022-10-17T06:54:33.780Z,13.50
2022-10-17T06:58:15.494Z,13.50
2022-10-17T07:01:57.283Z,13.50
2022-10-17T07:05:39.064Z,13.50
2022-10-17T07:09:21.106Z,13.50
2022-10-17T07:13:02.842Z,13.50
2022-10-17T07:16:45.449Z,13.40
2022-10-17T07:20:27.176Z,13.50
2022-10-17T07:24:08.977Z,13.50
2022-10-17T07:27:51.759Z,13.60
2022-10-17T07:31:34.070Z,13.60
2022-10-17T07:35:15.907Z,13.60
2022-10-17T07:38:57.605Z,13.60
2022-10-17T07:46:26.124Z,13.70
2022-10-17T07:50:08.668Z,13.70
2022-10-17T07:53:50.399Z,13.80
2022-10-17T07:57:32.151Z,13.80
2022-10-17T08:01:15.675Z,13.90
2022-10-17T08:04:58.113Z,14.00
2022-10-17T08:08:40.036Z,14.10
2022-10-17T08:12:22.278Z,14.20
2022-10-17T08:16:07.953Z,14.20
2022-10-17T08:19:49.662Z,14.30
2022-10-17T08:23:31.443Z,14.50
2022-10-17T08:27:13.770Z,14.60
2022-10-17T08:31:03.899Z,14.70
2022-10-17T08:34:45.691Z,14.70
2022-10-17T08:38:33.235Z,15.10
2022-10-17T08:42:59.616Z,15.50
2022-10-17T08:46:44.343Z,16.10
2022-10-17T08:50:35.742Z,16.60
2022-10-17T08:54:22.223Z,17.10
2022-10-17T08:58:17.069Z,17.60
2022-10-17T09:02:10.232Z,18.00
2022-10-17T09:06:05.883Z,18.40
2022-10-17T09:09:59.470Z,18.80
2022-10-17T09:13:53.247Z,19.30
2022-10-17T09:18:03.207Z,19.70
2022-10-17T09:22:02.450Z,20.00
2022-10-17T09:25:47.130Z,20.20
2022-10-17T09:29:39.014Z,20.30
2022-10-17T09:33:35.495Z,20.30
2022-10-17T09:37:32.862Z,20.60
2022-10-17T09:41:51.272Z,21.00
2022-10-17T09:45:38.749Z,21.20
2022-10-17T09:49:29.266Z,21.40
2022-10-17T09:53:20.723Z,21.80
2022-10-17T09:57:10.655Z,22.20
2022-10-17T10:00:52.517Z,22.60
2022-10-17T10:05:04.182Z,23.10
2022-10-17T10:08:53.171Z,23.40
2022-10-17T10:12:38.704Z,23.70
2022-10-17T10:16:22.646Z,23.90
2022-10-17T10:20:29.917Z,24.10
2022-10-17T10:24:14.749Z,24.50
2022-10-17T10:27:58.223Z,24.80
2022-10-17T10:31:42.401Z,25.00
2022-10-17T10:35:36.932Z,25.20
2022-10-17T10:39:28.710Z,25.40
2022-10-17T10:43:22.527Z,25.80
2022-10-17T10:47:28.915Z,26.20
2022-10-17T10:51:16.422Z,26.30
2022-10-17T10:55:22.587Z,26.60
2022-10-17T10:59:20.625Z,26.80
2022-10-17T11:03:12.988Z,27.00
2022-10-17T11:07:05.462Z,27.30
2022-10-17T11:11:13.689Z,27.40
2022-10-17T11:15:07.581Z,27.50
2022-10-17T11:19:04.670Z,27.50
2022-10-17T11:22:57.681Z,27.20
2022-10-17T11:26:46.301Z,27.10
2022-10-17T11:30:39.708Z,27.60
2022-10-17T11:34:26.427Z,28.50
2022-10-17T11:38:24.606Z,29.00
2022-10-17T11:42:12.495Z,29.20
2022-10-17T11:46:03.367Z,29.20
2022-10-17T11:49:54.045Z,28.60
2022-10-17T11:53:45.081Z,27.50
2022-10-17T11:57:39.467Z,27.20
2022-10-17T12:01:36.270Z,27.20
2022-10-17T12:05:38.323Z,26.90
2022-10-17T12:09:43.205Z,26.10
2022-10-17T12:13:28.060Z,25.10
2022-10-17T12:17:34.040Z,24.40
2022-10-17T12:21:16.034Z,24.20
2022-10-17T12:25:04.897Z,23.90
2022-10-17T12:28:49.719Z,23.70
2022-10-17T12:32:46.825Z,23.70
2022-10-17T12:36:34.068Z,24.10
2022-10-17T12:40:37.587Z,24.90
2022-10-17T12:44:22.004Z,25.80
2022-10-17T12:48:03.846Z,26.40
2022-10-17T12:52:16.475Z,26.70
2022-10-17T12:56:01.578Z,27.00
2022-10-17T12:59:45.276Z,27.30
2022-10-17T13:03:34.951Z,27.90
2022-10-17T13:07:22.122Z,28.50
2022-10-17T13:11:05.147Z,28.70
2022-10-17T13:14:47.944Z,29.10
2022-10-17T13:18:30.337Z,28.80
2022-10-17T13:22:15.873Z,28.80
2022-10-17T13:26:15.388Z,29.20
2022-10-17T13:29:59.176Z,29.50
2022-10-17T13:33:42.328Z,29.10
2022-10-17T13:37:24.500Z,28.50
2022-10-17T13:41:45.914Z,28.00
2022-10-17T13:45:32.960Z,28.00
2022-10-17T13:49:30.940Z,27.80
2022-10-17T13:53:24.391Z,27.60
2022-10-17T13:57:29.554Z,27.10
2022-10-17T14:01:12.856Z,26.70
2022-10-17T14:05:17.271Z,26.40
2022-10-17T14:09:06.650Z,25.80
2022-10-17T14:12:51.049Z,25.50
2022-10-17T14:16:42.562Z,25.20
2022-10-17T14:20:57.496Z,24.90
2022-10-17T14:24:31.417Z,24.50
2022-10-17T14:28:14.433Z,24.10
2022-10-17T14:32:10.507Z,23.70
2022-10-17T14:35:54.784Z,23.20
2022-10-17T14:39:36.657Z,22.80
2022-10-17T14:43:24.249Z,22.40
2022-10-17T14:47:38.026Z,22.00
2022-10-17T14:51:12.882Z,21.80
2022-10-17T14:54:55.396Z,21.80
2022-10-17T14:58:37.285Z,21.70
2022-10-17T15:02:19.810Z,22.00
2022-10-17T15:06:32.555Z,21.90
2022-10-17T15:10:35.758Z,21.80
2022-10-17T15:14:17.560Z,21.50
2022-10-17T15:17:59.688Z,21.40
2022-10-17T15:21:44.802Z,21.20
2022-10-17T15:25:31.263Z,20.80
2022-10-17T15:29:16.221Z,20.60
2022-10-17T15:32:59.013Z,20.30
2022-10-17T15:36:42.731Z,20.00
2022-10-17T15:40:29.719Z,19.80
2022-10-17T15:44:11.495Z,19.60
2022-10-17T15:47:56.776Z,19.40
2022-10-17T15:51:38.631Z,19.40
2022-10-17T15:55:20.664Z,19.40
2022-10-17T15:59:18.407Z,19.30
2022-10-17T16:03:00.522Z,19.30
2022-10-17T16:06:42.916Z,19.30
2022-10-17T16:10:25.987Z,19.50
2022-10-17T16:14:14.354Z,19.70
2022-10-17T16:17:57.879Z,20.00
2022-10-17T16:21:41.861Z,20.40
2022-10-17T16:25:26.307Z,21.00
2022-10-17T16:29:10.256Z,21.50
2022-10-17T16:32:53.056Z,22.00
2022-10-17T16:36:35.467Z,22.10
2022-10-17T16:40:17.821Z,21.90
2022-10-17T16:44:04.630Z,21.60
2022-10-17T16:47:46.852Z,21.10
2022-10-17T16:51:29.221Z,20.70
2022-10-17T16:55:11.005Z,20.30
2022-10-17T16:58:53.807Z,19.90
2022-10-17T17:02:35.579Z,19.50
2022-10-17T17:06:24.827Z,19.00
2022-10-17T17:14:12.790Z,18.20
2022-10-17T17:17:55.682Z,17.90
2022-10-17T17:21:38.767Z,17.50
2022-10-17T17:25:21.262Z,17.10
2022-10-17T17:29:03.393Z,16.80
2022-10-17T17:33:19.203Z,16.40
2022-10-17T17:37:00.913Z,16.10
2022-10-17T17:40:50.764Z,15.90
2022-10-17T17:44:33.120Z,15.60
2022-10-17T17:48:15.220Z,15.40
2022-10-17T17:51:57.055Z,15.10
2022-10-17T17:55:38.991Z,14.90
2022-10-17T17:59:20.745Z,14.70
2022-10-17T18:03:04.013Z,14.50
2022-10-17T18:06:47.086Z,14.40
2022-10-17T18:10:29.469Z,14.30
2022-10-17T18:14:13.603Z,14.10
2022-10-17T18:17:55.444Z,14.00
2022-10-17T18:21:37.919Z,13.90
2022-10-17T18:25:19.843Z,13.90
2022-10-17T18:29:04.761Z,13.90
2022-10-17T18:32:46.559Z,13.90
2022-10-17T18:36:30.075Z,13.90
2022-10-17T18:40:12.179Z,13.90
2022-10-17T18:43:55.639Z,13.90
2022-10-17T18:47:43.327Z,13.90
2022-10-17T18:51:26.466Z,13.90
2022-10-17T18:55:10.017Z,13.80
2022-10-17T18:58:52.165Z,13.80
2022-10-17T19:02:35.677Z,13.70
2022-10-17T19:06:23.328Z,13.70
2022-10-17T19:10:05.848Z,13.70
2022-10-17T19:13:50.202Z,13.70
2022-10-17T19:17:32.270Z,13.60
2022-10-17T19:21:18.029Z,13.50
2022-10-17T19:25:02.323Z,13.40
2022-10-17T19:28:44.386Z,13.40
2022-10-17T19:32:26.266Z,13.30
2022-10-17T19:36:10.859Z,13.20
2022-10-17T19:39:52.613Z,13.10
2022-10-17T19:43:37.074Z,13.00
2022-10-17T19:47:18.785Z,12.90
2022-10-17T19:51:00.896Z,12.80
2022-10-17T19:54:42.675Z,12.70
2022-10-17T19:58:27.933Z,12.60
2022-10-17T20:02:12.868Z,12.50
2022-10-17T20:05:55.031Z,12.30
2022-10-17T20:09:38.723Z,12.20
2022-10-17T20:13:20.540Z,12.10
2022-10-17T20:17:02.307Z,12.00
2022-10-17T20:20:44.101Z,12.00
2022-10-17T20:24:25.805Z,12.00
2022-10-17T20:28:07.872Z,12.00
2022-10-17T20:31:50.519Z,12.00
2022-10-17T20:35:34.773Z,12.00
2022-10-17T20:39:18.932Z,12.00
2022-10-17T20:43:05.401Z,12.00
2022-10-17T20:47:00.668Z,11.90
2022-10-17T20:50:43.861Z,11.80
2022-10-17T20:54:27.731Z,11.80
2022-10-17T20:58:13.623Z,11.70
2022-10-17T21:01:55.472Z,11.70
2022-10-17T21:05:40.748Z,11.60
2022-10-17T21:09:23.049Z,11.50
2022-10-17T21:13:04.784Z,11.40
2022-10-17T21:16:46.887Z,11.40
2022-10-17T21:20:28.626Z,11.30
2022-10-17T21:24:14.071Z,11.30
2022-10-17T21:27:55.903Z,11.20
2022-10-17T21:31:39.293Z,11.00
2022-10-17T21:35:21.020Z,10.90
2022-10-17T21:39:03.666Z,10.90
2022-10-17T21:42:45.459Z,10.80
2022-10-17T21:46:27.850Z,10.70
2022-10-17T21:50:09.897Z,10.80
2022-10-17T21:53:53.623Z,10.80
2022-10-17T21:57:36.432Z,10.80
2022-10-17T22:01:23.762Z,10.90
2022-10-17T22:05:05.851Z,10.90
2022-10-17T22:08:48.089Z,10.80
2022-10-17T22:12:30.137Z,10.70
2022-10-17T22:16:15.129Z,10.70
2022-10-17T22:19:56.846Z,10.70
2022-10-17T22:23:38.955Z,10.60
2022-10-17T22:27:21.002Z,10.60
2022-10-17T22:31:03.755Z,10.60
2022-10-17T22:38:25.951Z,10.70
2022-10-17T22:42:07.647Z,10.60
2022-10-17T22:45:57.637Z,10.70
2022-10-17T22:49:39.353Z,10.60
2022-10-17T22:53:26.802Z,10.60
2022-10-17T22:57:08.603Z,10.50
2022-10-17T23:00:51.698Z,10.50
2022-10-17T23:04:33.706Z,10.30
2022-10-17T23:08:18.014Z,10.20
2022-10-17T23:11:59.777Z,10.20
2022-10-17T23:15:42.395Z,10.20
2022-10-17T23:19:25.135Z,10.10
2022-10-17T23:23:06.983Z,10.20
2022-10-17T23:26:48.683Z,10.30
2022-10-17T23:30:32.623Z,10.40
2022-10-17T23:34:14.485Z,10.40
2022-10-17T23:41:36.855Z,10.40
2022-10-17T23:45:18.803Z,10.30
2022-10-17T23:49:00.710Z,10.30
2022-10-17T23:52:42.459Z,10.30
2022-10-17T23:56:24.272Z,10.30
